Time;durP1;ratioP1;P1;durP2;ratioP2;P2;SDS_P1;SDS_P2;PMS_P1;PMS_P2;Temp;Humidity;BMP_temperature;BMP_pressure;BME280_temperature;BME280_humidity;BME280_pressure;Samples;Min_cycle;Max_cycle;Signal;HPM_P1;HPM_P2
2022/12/31 00:02:24;;;;;;;32.80;12.80;;;;;;;4.08;89.95;100010.89;103589;1278;24311;-57
2022/12/31 00:04:55;;;;;;;35.10;12.30;;;;;;;4.12;89.86;100010.61;103694;1282;22482;-56
2022/12/31 00:07:26;;;;;;;35.70;14.20;;;;;;;4.15;90.16;100011.31;103553;1275;22466;-54
2022/12/31 00:09:57;;;;;;;38.10;15.10;;;;;;;4.17;90.15;100014.16;103550;1275;22480;-54
2022/12/31 00:12:28;;;;;;;36.40;13.90;;;;;;;4.21;90.27;100010.98;103614;1303;23202;-56
2022/12/31 00:14:59;;;;;;;34.00;14.70;;;;;;;4.25;90.38;100008.33;103578;1278;22469;-54
2022/12/31 00:17:31;;;;;;;30.50;11.90;;;;;;;4.28;90.40;100009.02;103588;1282;24416;-58
2022/12/31 00:20:02;;;;;;;29.10;11.80;;;;;;;4.32;90.50;100012.14;103705;1303;22477;-53
2022/12/31 00:22:32;;;;;;;29.60;11.40;;;;;;;4.34;90.59;100010.62;103555;1275;24342;-56
2022/12/31 00:25:04;;;;;;;26.40;11.00;;;;;;;4.37;90.66;100010.23;103562;1282;24246;-54
2022/12/31 00:27:35;;;;;;;32.00;14.00;;;;;;;4.40;90.69;100008.86;103621;1274;23901;-57
2022/12/31 00:30:08;;;;;;;29.50;11.70;;;;;;;4.44;90.71;100001.41;103658;1275;25231;-55
2022/12/31 00:32:39;;;;;;;28.00;9.80;;;;;;;4.48;90.75;99997.25;103627;1280;23956;-57
2022/12/31 00:35:10;;;;;;;26.60;9.40;;;;;;;4.51;90.93;99989.39;103524;1282;22480;-53
2022/12/31 00:37:41;;;;;;;25.30;8.80;;;;;;;4.55;91.06;99987.38;103640;1275;22472;-58
2022/12/31 00:40:13;;;;;;;24.40;9.10;;;;;;;4.60;91.05;99987.38;103534;1303;24251;-54
2022/12/31 00:42:44;;;;;;;20.20;6.40;;;;;;;4.66;91.04;99985.69;103690;1278;22462;-54
2022/12/31 00:45:15;;;;;;;17.30;5.50;;;;;;;4.75;91.32;99986.58;103527;1275;24364;-56
2022/12/31 00:47:46;;;;;;;18.40;5.20;;;;;;;4.84;91.11;99991.49;103620;1303;24328;-58
2022/12/31 00:50:17;;;;;;;19.00;6.80;;;;;;;4.92;91.13;99994.77;103678;1280;22800;-57
2022/12/31 00:52:48;;;;;;;18.90;6.10;;;;;;;5.00;91.15;99997.50;103713;1303;22516;-54
2022/12/31 00:55:19;;;;;;;18.80;5.40;;;;;;;5.08;90.99;100003.46;103620;1289;23255;-56
2022/12/31 00:57:50;;;;;;;17.70;5.00;;;;;;;5.15;90.87;100007.03;103548;1280;22497;-56
2022/12/31 01:00:21;;;;;;;20.00;6.60;;;;;;;5.23;90.83;100006.73;103544;1303;24261;-54
2022/12/31 01:02:52;;;;;;;18.70;5.70;;;;;;;5.32;90.73;100001.45;103621;1289;22460;-57
2022/12/31 01:05:23;;;;;;;15.20;5.50;;;;;;;5.40;90.75;100005.95;103556;1277;22454;-55
2022/12/31 01:07:54;;;;;;;16.30;5.80;;;;;;;5.49;90.64;100005.09;103576;1288;22464;-57
2022/12/31 01:13:10;;;;;;;20.00;7.20;;;;;;;5.67;90.24;100019.92;103631;1298;24270;-54
2022/12/31 01:15:42;;;;;;;18.30;5.70;;;;;;;5.74;90.19;100017.80;103588;1272;22475;-54
2022/12/31 01:18:13;;;;;;;17.40;5.80;;;;;;;5.81;90.01;100014.61;103591;1282;22485;-56
2022/12/31 01:20:45;;;;;;;18.30;6.30;;;;;;;5.87;89.99;100015.60;103613;1282;22464;-56
2022/12/31 01:23:16;;;;;;;17.30;4.70;;;;;;;5.93;89.98;100006.45;103590;1280;24257;-54
2022/12/31 01:25:47;;;;;;;17.10;4.70;;;;;;;6.00;89.77;100007.19;103616;1278;22493;-57
2022/12/31 01:28:17;;;;;;;18.30;5.10;;;;;;;6.07;89.65;100003.92;103628;1278;22447;-57
2022/12/31 01:30:48;;;;;;;17.80;4.90;;;;;;;6.12;89.52;99999.61;103515;1303;23192;-55
2022/12/31 01:33:19;;;;;;;20.20;6.30;;;;;;;6.17;89.63;99992.44;103541;1282;22471;-57
2022/12/31 01:35:50;;;;;;;18.30;6.00;;;;;;;6.21;89.34;99995.61;103623;1303;22661;-54
2022/12/31 01:38:21;;;;;;;18.70;5.20;;;;;;;6.27;89.27;100000.60;103502;1303;22478;-55
2022/12/31 01:40:52;;;;;;;21.20;6.00;;;;;;;6.31;89.25;99996.31;103544;1283;22586;-55
2022/12/31 01:43:23;;;;;;;18.20;5.90;;;;;;;6.36;89.09;99997.17;103527;1282;25381;-58
2022/12/31 01:45:54;;;;;;;17.40;5.50;;;;;;;6.39;89.16;100005.03;103593;1303;24291;-55
2022/12/31 01:48:28;;;;;;;16.30;5.20;;;;;;;6.42;89.16;100012.52;103589;1295;22727;-57
2022/12/31 01:50:59;;;;;;;22.00;6.00;;;;;;;6.45;88.88;100015.75;104212;1303;22833;-58
2022/12/31 01:53:30;;;;;;;19.10;6.00;;;;;;;6.49;88.93;100020.17;103781;1282;22564;-54
2022/12/31 01:56:02;;;;;;;20.10;4.90;;;;;;;6.51;88.96;100013.49;103628;1274;22476;-58
2022/12/31 01:58:40;;;;;;;16.60;4.90;;;;;;;6.54;88.92;100019.50;103508;1303;24237;-57
2022/12/31 02:01:14;;;;;;;13.80;4.60;;;;;;;6.57;88.77;100028.83;103539;1282;27568;-53
2022/12/31 02:03:46;;;;;;;14.10;4.00;;;;;;;6.60;88.75;100037.24;103536;1282;24691;-57
2022/12/31 02:06:21;;;;;;;15.20;4.40;;;;;;;6.65;88.68;100039.76;103565;1303;25372;-56
2022/12/31 02:08:52;;;;;;;14.20;3.50;;;;;;;6.67;88.75;100046.95;103673;1303;24337;-54
2022/12/31 02:11:29;;;;;;;13.30;3.90;;;;;;;6.70;88.66;100043.27;103504;1282;22581;-54
2022/12/31 02:14:03;;;;;;;17.30;5.20;;;;;;;6.73;88.77;100041.45;103665;1303;25525;-54
2022/12/31 02:16:42;;;;;;;14.20;4.30;;;;;;;6.76;88.73;100047.13;103524;1303;22459;-53
2022/12/31 02:19:43;;;;;;;11.70;3.70;;;;;;;6.79;88.77;100043.14;103591;1275;22874;-55
2022/12/31 02:22:22;;;;;;;15.70;4.80;;;;;;;6.83;88.68;100036.08;103552;1289;22470;-54
2022/12/31 02:25:32;;;;;;;16.10;4.80;;;;;;;6.85;88.84;100038.04;103685;1303;22460;-54
2022/12/31 02:28:19;;;;;;;20.50;5.40;;;;;;;6.89;88.95;100045.10;103539;1278;24390;-57
2022/12/31 02:30:54;;;;;;;17.50;5.80;;;;;;;6.93;89.10;100047.40;103612;1298;24254;-58
2022/12/31 02:33:32;;;;;;;18.50;6.30;;;;;;;6.95;89.07;100044.84;103586;1303;25488;-56
2022/12/31 02:36:06;;;;;;;18.50;5.60;;;;;;;6.97;89.07;100037.08;103831;1296;22463;-57
2022/12/31 02:38:43;;;;;;;17.90;5.80;;;;;;;6.99;89.27;100039.68;103766;1303;25687;-55
2022/12/31 02:44:01;;;;;;;15.30;4.90;;;;;;;7.06;89.49;100033.14;103616;1281;22484;-56
2022/12/31 02:46:40;;;;;;;12.90;3.50;;;;;;;7.08;89.54;100034.16;103605;1278;24256;-56
2022/12/31 02:49:16;;;;;;;13.40;3.80;;;;;;;7.11;89.60;100042.28;103715;1294;24251;-54
2022/12/31 02:51:54;;;;;;;12.50;3.60;;;;;;;7.14;89.72;100041.27;103627;1303;26064;-55
2022/12/31 02:54:34;;;;;;;14.00;3.80;;;;;;;7.17;89.67;100053.93;103761;1298;22619;-57
2022/12/31 02:57:15;;;;;;;10.70;3.20;;;;;;;7.20;89.75;100062.66;103653;1303;22617;-54
2022/12/31 03:02:45;;;;;;;14.80;3.60;;;;;;;7.29;89.86;100064.13;103716;1303;24192;-56
2022/12/31 03:05:19;;;;;;;12.30;3.60;;;;;;;7.32;89.94;100061.84;102780;1275;1458949;-56
2022/12/31 03:07:51;;;;;;;12.60;4.00;;;;;;;7.36;89.97;100054.79;103700;1278;25288;-58
2022/12/31 03:10:22;;;;;;;13.20;4.00;;;;;;;7.38;90.15;100049.70;103734;1303;23083;-56
2022/12/31 03:12:53;;;;;;;10.80;2.70;;;;;;;7.40;90.13;100046.05;103599;1283;25223;-55
2022/12/31 03:15:26;;;;;;;12.20;2.70;;;;;;;7.42;90.25;100056.45;103584;1274;23230;-58
2022/12/31 03:18:00;;;;;;;10.70;3.10;;;;;;;7.43;90.19;100062.81;103633;1303;24256;-57
2022/12/31 03:23:24;;;;;;;16.20;5.20;;;;;;;7.47;90.18;100071.64;103643;1303;22432;-57
2022/12/31 03:25:56;;;;;;;14.60;4.80;;;;;;;7.47;90.11;100082.57;103696;1282;25379;-57
2022/12/31 03:28:29;;;;;;;12.50;3.40;;;;;;;7.49;90.31;100084.89;103645;1295;22509;-57
2022/12/31 03:31:02;;;;;;;11.70;3.00;;;;;;;7.50;90.27;100084.81;103769;1278;22562;-55
2022/12/31 03:33:34;;;;;;;15.10;3.50;;;;;;;7.51;90.28;100078.68;103685;1279;22521;-58
2022/12/31 03:36:09;;;;;;;12.50;3.80;;;;;;;7.51;90.37;100078.95;103834;1282;22619;-57
2022/12/31 03:38:40;;;;;;;14.50;4.30;;;;;;;7.53;90.27;100080.46;103635;1295;23918;-53
2022/12/31 03:41:12;;;;;;;10.10;2.60;;;;;;;7.54;90.23;100079.33;103818;1283;22461;-58
2022/12/31 03:43:43;;;;;;;11.80;2.90;;;;;;;7.54;90.15;100084.40;103634;1303;22424;-58
2022/12/31 03:46:14;;;;;;;10.70;2.90;;;;;;;7.56;90.24;100091.95;103611;1278;22804;-58
2022/12/31 03:48:45;;;;;;;9.50;2.30;;;;;;;7.55;90.18;100093.41;103669;1282;22472;-57
2022/12/31 03:51:16;;;;;;;10.00;2.30;;;;;;;7.56;90.23;100102.67;103694;1289;24464;-55
2022/12/31 03:53:47;;;;;;;10.30;2.10;;;;;;;7.56;90.21;100105.41;103696;1282;23206;-58
2022/12/31 03:56:18;;;;;;;9.20;1.90;;;;;;;7.56;90.33;100105.58;104315;1299;22483;-61
2022/12/31 03:58:49;;;;;;;7.20;1.90;;;;;;;7.59;90.28;100101.83;103664;1303;24376;-59
2022/12/31 04:01:24;;;;;;;13.10;2.70;;;;;;;7.60;90.26;100096.86;103709;1275;23041;-57
2022/12/31 04:03:55;;;;;;;8.90;2.40;;;;;;;7.61;90.28;100096.51;103710;1289;25521;-55
2022/12/31 04:06:26;;;;;;;12.00;2.60;;;;;;;7.61;90.20;100094.64;103682;1282;25536;-56
2022/12/31 04:08:57;;;;;;;10.70;2.90;;;;;;;7.63;90.09;100092.05;103719;1303;22502;-57
2022/12/31 04:11:28;;;;;;;11.40;3.20;;;;;;;7.64;90.18;100087.69;103670;1282;22543;-55
2022/12/31 04:13:59;;;;;;;13.00;3.50;;;;;;;7.64;90.09;100083.64;103687;1303;22718;-62
2022/12/31 04:16:31;;;;;;;10.70;3.20;;;;;;;7.66;90.15;100081.80;103647;1303;24340;-61
2022/12/31 04:19:01;;;;;;;10.60;2.20;;;;;;;7.67;90.18;100079.61;103589;1289;22475;-58
2022/12/31 04:21:32;;;;;;;11.40;2.20;;;;;;;7.67;90.15;100075.42;103699;1298;23363;-55
2022/12/31 04:24:04;;;;;;;7.70;2.00;;;;;;;7.68;90.06;100075.72;103618;1303;25577;-57
2022/12/31 04:26:35;;;;;;;8.80;1.80;;;;;;;7.67;90.04;100075.11;103663;1295;22530;-56
2022/12/31 04:29:06;;;;;;;10.70;2.20;;;;;;;7.67;90.07;100079.45;103708;1282;22418;-58
2022/12/31 04:31:37;;;;;;;11.00;2.30;;;;;;;7.68;90.12;100073.00;103691;1281;22551;-57
2022/12/31 04:34:08;;;;;;;6.80;1.90;;;;;;;7.68;90.07;100069.82;103714;1282;24538;-55
2022/12/31 04:36:39;;;;;;;7.80;1.80;;;;;;;7.68;90.06;100072.91;103585;1282;24368;-58
2022/12/31 04:39:10;;;;;;;7.70;2.00;;;;;;;7.69;90.16;100066.43;103680;1295;25394;-58
2022/12/31 04:41:41;;;;;;;7.10;1.70;;;;;;;7.70;90.14;100056.79;103601;1303;23902;-59
2022/12/31 04:44:12;;;;;;;10.30;2.20;;;;;;;7.70;90.04;100063.61;103616;1303;22509;-58
2022/12/31 04:46:43;;;;;;;6.80;1.90;;;;;;;7.70;90.22;100070.20;103628;1280;24366;-56
2022/12/31 04:49:14;;;;;;;7.40;1.70;;;;;;;7.70;90.22;100077.96;103715;1280;22840;-58
2022/12/31 04:51:45;;;;;;;8.80;1.90;;;;;;;7.71;90.10;100088.66;103609;1275;22423;-56
2022/12/31 04:54:16;;;;;;;6.90;1.90;;;;;;;7.73;90.25;100095.57;103685;1303;22458;-55
2022/12/31 04:56:47;;;;;;;9.30;2.30;;;;;;;7.74;90.41;100095.36;103632;1294;22473;-57
2022/12/31 04:59:18;;;;;;;7.80;1.80;;;;;;;7.76;90.25;100092.83;103676;1282;24330;-55
2022/12/31 05:01:49;;;;;;;8.70;2.00;;;;;;;7.78;90.54;100099.71;103592;1287;23325;-57
2022/12/31 05:04:20;;;;;;;8.30;1.90;;;;;;;7.80;90.40;100095.36;103730;1294;22658;-55
2022/12/31 05:06:51;;;;;;;7.80;2.20;;;;;;;7.81;90.53;100091.89;103752;1296;22470;-58
2022/12/31 05:09:26;;;;;;;14.10;3.00;;;;;;;7.82;90.50;100089.71;103635;1278;22462;-56
2022/12/31 05:11:57;;;;;;;10.60;2.60;;;;;;;7.83;90.57;100085.82;103679;1303;22601;-57
2022/12/31 05:14:28;;;;;;;11.40;2.90;;;;;;;7.85;90.55;100083.34;103646;1282;22507;-54
2022/12/31 05:17:03;;;;;;;9.00;2.40;;;;;;;7.87;90.57;100078.91;103604;1282;22464;-57
2022/12/31 05:19:34;;;;;;;8.30;2.90;;;;;;;7.87;90.40;100075.17;103580;1275;22469;-57
2022/12/31 05:24:53;;;;;;;10.70;2.50;;;;;;;7.85;90.32;100076.36;103614;1288;25561;-57
2022/12/31 05:27:25;;;;;;;7.40;2.30;;;;;;;7.83;90.40;100073.98;103603;1303;22457;-58
2022/12/31 05:29:56;;;;;;;11.00;2.80;;;;;;;7.82;90.46;100072.54;103714;1303;22497;-54
2022/12/31 05:32:27;;;;;;;7.10;1.90;;;;;;;7.82;90.65;100067.29;103683;1282;22593;-57
2022/12/31 05:34:59;;;;;;;9.80;2.20;;;;;;;7.83;90.83;100064.84;103599;1303;22481;-58
2022/12/31 05:37:30;;;;;;;5.90;1.90;;;;;;;7.85;90.85;100065.40;103746;1303;24291;-58
2022/12/31 05:40:01;;;;;;;9.10;2.20;;;;;;;7.88;90.89;100075.36;103941;1284;22467;-56
2022/12/31 05:42:33;;;;;;;8.60;1.80;;;;;;;7.90;91.00;100071.79;103687;1304;25375;-58
2022/12/31 05:45:05;;;;;;;6.20;1.80;;;;;;;7.93;90.86;100077.13;103631;1303;23214;-56
2022/12/31 05:47:36;;;;;;;4.70;0.90;;;;;;;7.95;91.01;100078.23;103707;1303;22507;-55
2022/12/31 05:50:09;;;;;;;5.00;1.30;;;;;;;7.97;91.01;100081.87;103718;1295;22580;-57
2022/12/31 05:52:41;;;;;;;4.70;1.20;;;;;;;7.99;91.06;100085.77;103841;1303;22458;-56
2022/12/31 05:55:13;;;;;;;4.30;0.90;;;;;;;8.00;91.10;100076.66;103724;1303;23019;-54
2022/12/31 05:57:44;;;;;;;4.60;1.10;;;;;;;8.01;91.01;100070.72;103836;1282;24380;-55
2022/12/31 06:00:17;;;;;;;4.20;1.00;;;;;;;8.02;90.92;100076.26;104083;1303;22447;-59
2022/12/31 06:02:48;;;;;;;6.30;1.40;;;;;;;8.02;91.06;100075.45;103977;1303;25265;-63
2022/12/31 06:05:20;;;;;;;5.90;1.20;;;;;;;8.02;91.10;100083.77;103647;1282;22468;-57
2022/12/31 06:07:50;;;;;;;3.70;1.00;;;;;;;8.03;91.24;100086.65;103775;1303;22472;-56
2022/12/31 06:10:22;;;;;;;4.00;1.10;;;;;;;8.04;91.34;100093.76;103682;1282;23076;-58
2022/12/31 06:12:52;;;;;;;4.60;1.10;;;;;;;8.06;91.19;100090.05;103692;1278;26627;-56
2022/12/31 06:15:23;;;;;;;4.90;1.20;;;;;;;8.06;91.15;100084.80;103659;1285;24333;-56
2022/12/31 06:17:54;;;;;;;6.30;1.60;;;;;;;8.06;91.27;100080.35;103535;1303;24374;-57
2022/12/31 06:20:25;;;;;;;5.00;1.20;;;;;;;8.06;91.28;100079.70;103670;1278;22471;-58
2022/12/31 06:22:59;;;;;;;5.80;1.30;;;;;;;8.05;91.33;100078.06;103572;1283;25596;-55
2022/12/31 06:25:30;;;;;;;6.20;1.30;;;;;;;8.05;91.24;100080.23;103574;1289;22469;-56
2022/12/31 06:28:01;;;;;;;6.10;1.30;;;;;;;8.04;91.16;100091.17;106959;1303;22177;-58
2022/12/31 06:30:32;;;;;;;6.50;1.00;;;;;;;8.03;91.19;100088.36;106979;1303;22266;-60
2022/12/31 06:33:03;;;;;;;5.00;1.10;;;;;;;8.02;91.39;100082.73;107015;1303;22295;-56
2022/12/31 06:35:34;;;;;;;4.90;1.10;;;;;;;8.03;91.43;100091.66;107032;1303;22171;-59
2022/12/31 06:38:05;;;;;;;4.50;1.00;;;;;;;8.05;91.65;100095.39;104687;1303;25371;-58
2022/12/31 06:40:38;;;;;;;4.20;1.00;;;;;;;8.07;91.75;100095.86;103654;1301;22609;-56
2022/12/31 06:43:09;;;;;;;5.10;0.90;;;;;;;8.09;91.96;100091.63;103725;1298;24334;-56
2022/12/31 06:45:40;;;;;;;3.30;1.00;;;;;;;8.12;91.91;100099.78;103697;1282;22710;-61
2022/12/31 06:48:11;;;;;;;5.50;1.10;;;;;;;8.14;91.99;100102.30;103601;1282;22599;-55
2022/12/31 06:50:42;;;;;;;6.90;1.00;;;;;;;8.18;92.14;100100.61;103704;1304;25644;-60
2022/12/31 06:53:13;;;;;;;5.30;1.10;;;;;;;8.21;92.00;100095.70;103533;1303;24491;-60
2022/12/31 06:55:45;;;;;;;8.00;0.90;;;;;;;8.24;91.96;100090.83;103515;1295;22841;-57
2022/12/31 06:58:18;;;;;;;4.70;1.40;;;;;;;8.26;92.09;100095.77;103592;1275;22782;-58
2022/12/31 07:01:02;;;;;;;4.20;0.90;;;;;;;8.27;92.09;100089.77;103635;1283;25228;-57
2022/12/31 07:03:42;;;;;;;3.70;0.80;;;;;;;8.26;92.09;100088.35;103529;1304;22510;-59
2022/12/31 07:06:19;;;;;;;2.80;0.90;;;;;;;8.28;92.15;100083.92;103630;1304;24698;-58
2022/12/31 07:08:56;;;;;;;3.80;0.90;;;;;;;8.28;92.30;100090.66;103696;1300;24263;-55
2022/12/31 07:11:31;;;;;;;4.00;0.70;;;;;;;8.29;92.25;100102.53;103609;1303;22803;-56
2022/12/31 07:14:20;;;;;;;4.30;0.90;;;;;;;8.31;92.41;100109.82;103673;1278;22467;-58
2022/12/31 07:17:02;;;;;;;4.50;0.80;;;;;;;8.35;92.42;100130.14;103688;1289;22488;-57
2022/12/31 07:19:47;;;;;;;3.00;0.70;;;;;;;8.36;92.40;100126.67;103625;1304;24270;-58
2022/12/31 07:22:20;;;;;;;4.90;1.10;;;;;;;8.39;92.50;100122.09;103624;1278;22471;-66
2022/12/31 07:24:53;;;;;;;4.30;0.90;;;;;;;8.42;92.81;100118.38;103595;1278;24239;-58
2022/12/31 07:27:41;;;;;;;5.90;1.10;;;;;;;8.48;92.85;100118.09;103579;1295;24602;-58
2022/12/31 07:30:17;;;;;;;4.60;0.90;;;;;;;8.54;92.81;100112.71;103521;1303;23250;-58
2022/12/31 07:33:05;;;;;;;5.00;0.90;;;;;;;8.61;92.95;100125.78;103698;1303;24260;-60
2022/12/31 07:35:45;;;;;;;3.30;0.80;;;;;;;8.66;92.88;100131.40;103732;1304;25577;-61
2022/12/31 07:38:23;;;;;;;4.10;0.80;;;;;;;8.70;92.92;100127.08;103765;1278;25583;-59
2022/12/31 07:41:05;;;;;;;3.60;0.80;;;;;;;8.76;92.87;100119.19;103571;1284;22491;-58
2022/12/31 07:43:44;;;;;;;2.80;0.80;;;;;;;8.81;92.84;100119.77;103787;1304;22495;-58
2022/12/31 07:46:22;;;;;;;2.60;0.80;;;;;;;8.88;92.87;100121.14;103708;1295;24275;-58
2022/12/31 07:48:54;;;;;;;2.60;0.70;;;;;;;8.93;92.76;100123.59;103820;1304;22678;-59
2022/12/31 07:51:26;;;;;;;4.70;0.90;;;;;;;8.98;92.77;100129.52;103756;1303;22509;-60
2022/12/31 07:53:57;;;;;;;3.60;0.80;;;;;;;9.03;92.91;100131.20;103753;1303;24192;-60
2022/12/31 07:56:29;;;;;;;5.10;0.70;;;;;;;9.08;92.79;100129.40;103639;1281;22915;-58
2022/12/31 07:59:21;;;;;;;2.80;0.60;;;;;;;9.12;92.68;100127.46;103752;1306;22955;-57
2022/12/31 08:01:59;;;;;;;3.80;0.80;;;;;;;9.18;92.74;100128.73;103648;1304;25857;-58
2022/12/31 08:04:41;;;;;;;3.80;1.00;;;;;;;9.24;92.81;100125.73;103748;1285;24318;-58
2022/12/31 08:07:21;;;;;;;4.60;0.90;;;;;;;9.30;92.75;100126.96;104212;1274;22465;-57
2022/12/31 08:10:02;;;;;;;7.50;0.80;;;;;;;9.36;92.59;100133.44;103621;1282;23880;-56
2022/12/31 08:12:37;;;;;;;3.90;1.30;;;;;;;9.41;92.71;100141.61;103676;1280;24363;-58
2022/12/31 08:15:16;;;;;;;7.90;1.10;;;;;;;9.48;92.74;100143.52;103814;1285;22471;-55
2022/12/31 08:17:48;;;;;;;3.50;0.80;;;;;;;9.53;92.47;100137.35;103591;1304;22461;-57
2022/12/31 08:20:20;;;;;;;3.50;0.70;;;;;;;9.59;92.49;100135.55;103694;1291;22479;-58
2022/12/31 08:23:08;;;;;;;3.40;0.90;;;;;;;9.62;92.42;100134.71;103504;1303;25276;-59
2022/12/31 08:25:51;;;;;;;2.70;0.80;;;;;;;9.66;92.34;100138.65;103303;1293;24337;-57
2022/12/31 08:28:32;;;;;;;5.50;0.90;;;;;;;9.72;92.26;100141.23;103365;1285;24334;-59
2022/12/31 08:31:08;;;;;;;5.00;1.00;;;;;;;9.76;92.22;100134.52;103411;1288;26550;-57
2022/12/31 08:33:48;;;;;;;5.10;0.90;;;;;;;9.78;92.20;100144.58;103371;1299;22463;-60
2022/12/31 08:36:27;;;;;;;4.40;1.00;;;;;;;9.82;92.13;100139.93;103397;1304;22461;-64
2022/12/31 08:39:05;;;;;;;4.10;0.80;;;;;;;9.86;92.19;100144.30;103483;1289;25579;-61
2022/12/31 08:41:41;;;;;;;5.50;1.10;;;;;;;9.88;92.02;100149.02;103456;1297;24333;-61
2022/12/31 08:44:23;;;;;;;3.20;0.90;;;;;;;9.91;92.15;100152.77;103430;1285;22524;-61
2022/12/31 08:47:05;;;;;;;4.40;0.90;;;;;;;9.95;92.04;100148.45;103308;1278;24313;-61
2022/12/31 08:49:37;;;;;;;3.50;0.70;;;;;;;9.98;92.03;100147.05;103387;1285;24302;-60
2022/12/31 08:52:16;;;;;;;5.40;1.00;;;;;;;10.02;92.07;100148.08;103409;1278;22506;-60
2022/12/31 08:54:48;;;;;;;4.70;1.00;;;;;;;10.04;92.02;100148.17;103417;1285;24237;-61
2022/12/31 08:57:27;;;;;;;3.60;0.80;;;;;;;10.07;91.99;100142.09;103593;1285;22601;-60
2022/12/31 09:00:06;;;;;;;4.30;0.70;;;;;;;10.09;91.90;100134.63;103374;1309;24247;-61
2022/12/31 09:02:51;;;;;;;3.40;0.70;;;;;;;10.11;91.92;100137.09;103468;1309;25965;-60
2022/12/31 09:05:31;;;;;;;3.30;0.60;;;;;;;10.13;91.84;100134.54;103367;1309;22470;-60
2022/12/31 09:08:14;;;;;;;2.50;0.60;;;;;;;10.14;91.97;100131.98;103234;1278;24318;-60
2022/12/31 09:10:53;;;;;;;2.50;0.60;;;;;;;10.18;92.06;100128.29;104858;1283;23381;-60
2022/12/31 09:13:32;;;;;;;3.20;0.70;;;;;;;10.24;91.99;100111.70;103442;1283;22466;-61
2022/12/31 09:16:12;;;;;;;4.00;0.70;;;;;;;10.29;92.14;100114.60;103523;1293;22490;-61
2022/12/31 09:18:44;;;;;;;3.50;0.80;;;;;;;10.37;92.12;100120.80;103367;1285;22456;-60
2022/12/31 09:21:17;;;;;;;3.00;0.60;;;;;;;10.42;92.07;100123.40;103430;1292;25559;-65
2022/12/31 09:23:49;;;;;;;4.00;0.80;;;;;;;10.47;92.05;100132.17;103500;1304;24303;-61
2022/12/31 09:26:52;;;;;;;2.30;0.60;;;;;;;10.52;91.86;100131.23;103755;1280;22464;-61
2022/12/31 09:29:38;;;;;;;2.10;0.50;;;;;;;10.57;91.96;100138.27;103447;1278;25017;-62
2022/12/31 09:32:19;;;;;;;2.10;0.40;;;;;;;10.61;91.94;100136.87;103806;1278;22489;-61
2022/12/31 09:34:57;;;;;;;3.50;1.00;;;;;;;10.66;91.98;100137.10;103300;1295;22477;-60
2022/12/31 09:37:40;;;;;;;3.90;0.70;;;;;;;10.69;91.95;100138.44;103265;1285;22463;-61
2022/12/31 09:40:38;;;;;;;4.10;1.00;;;;;;;10.73;92.03;100142.82;103312;1304;24308;-61
2022/12/31 09:43:39;;;;;;;4.20;0.90;;;;;;;10.77;92.04;100138.20;103233;1295;24343;-62
2022/12/31 09:46:34;;;;;;;3.00;0.60;;;;;;;10.83;91.98;100134.13;102863;1287;25407;-61
2022/12/31 09:49:40;;;;;;;4.50;0.60;;;;;;;10.88;91.91;100132.51;102455;1290;22625;-64
2022/12/31 09:52:23;;;;;;;3.50;0.80;;;;;;;10.93;91.95;100130.85;102615;1290;22506;-61
2022/12/31 09:54:59;;;;;;;2.30;0.50;;;;;;;10.99;91.92;100127.68;102438;1290;22549;-61
2022/12/31 09:57:41;;;;;;;3.10;0.80;;;;;;;11.03;91.88;100129.23;102342;1317;22494;-62
2022/12/31 10:00:20;;;;;;;3.20;0.50;;;;;;;11.09;91.65;100127.04;102467;1294;22938;-62
2022/12/31 10:03:07;;;;;;;3.20;0.70;;;;;;;11.11;91.63;100127.27;102461;1316;25317;-62
2022/12/31 10:05:55;;;;;;;2.90;0.50;;;;;;;11.15;91.61;100122.80;102520;1302;24234;-62
2022/12/31 10:08:49;;;;;;;2.80;0.50;;;;;;;11.19;91.51;100125.30;102658;1297;26923;-63
2022/12/31 10:11:29;;;;;;;3.30;0.60;;;;;;;11.23;91.49;100137.71;102292;1317;22510;-61
2022/12/31 10:14:08;;;;;;;;;;;;;;;11.25;91.39;100134.94;102346;1289;22488;-62
2022/12/31 10:17:11;;;;;;;5.10;0.70;;;;;;;11.27;91.55;100136.25;102446;1289;22508;-60
2022/12/31 10:20:05;;;;;;;3.50;0.80;;;;;;;11.31;91.45;100131.48;102362;1293;22502;-62
2022/12/31 10:23:05;;;;;;;3.60;0.70;;;;;;;11.35;91.39;100122.73;102307;1293;23316;-61
2022/12/31 10:25:49;;;;;;;4.40;0.70;;;;;;;11.38;91.40;100117.19;103425;1284;22803;-61
2022/12/31 10:28:39;;;;;;;3.60;0.70;;;;;;;11.43;91.46;100118.02;103248;1286;22709;-61
2022/12/31 10:31:13;;;;;;;;;;;;;;;11.49;91.43;100112.50;103361;1281;25642;-62
2022/12/31 10:34:07;;;;;;;4.00;0.70;;;;;;;11.54;91.43;100102.97;103331;1294;22489;-61
2022/12/31 10:36:52;;;;;;;4.70;0.70;;;;;;;11.60;91.48;100104.77;103275;1306;24438;-62
2022/12/31 10:39:41;;;;;;;5.30;0.70;;;;;;;11.65;91.35;100103.84;103139;1304;26641;-62
2022/12/31 10:42:46;;;;;;;5.20;1.00;;;;;;;11.72;91.29;100106.17;103479;1303;24044;-63
2022/12/31 10:45:53;;;;;;;4.10;0.60;;;;;;;11.79;91.26;100106.00;103234;1297;24333;-62
2022/12/31 10:49:02;;;;;;;3.80;0.80;;;;;;;11.88;91.34;100091.35;103342;1285;22649;-63
2022/12/31 10:52:07;;;;;;;2.80;0.60;;;;;;;12.01;91.58;100095.06;102537;1288;24308;-62
2022/12/31 10:55:23;;;;;;;2.90;0.60;;;;;;;12.18;91.72;100093.46;102793;1285;26022;-62
2022/12/31 10:58:33;;;;;;;2.20;0.50;;;;;;;12.33;91.52;100091.16;102887;1288;24014;-62
2022/12/31 11:01:12;;;;;;;5.40;0.60;;;;;;;12.51;91.30;100093.01;102852;1297;24466;-63
2022/12/31 11:04:20;;;;;;;1.90;0.40;;;;;;;12.63;91.03;100085.83;102972;1309;22488;-61
2022/12/31 11:07:20;;;;;;;2.10;0.40;;;;;;;12.77;90.90;100088.17;102886;1286;25374;-61
2022/12/31 11:10:23;;;;;;;4.10;0.50;;;;;;;12.90;90.72;100090.06;102901;1299;25273;-62
2022/12/31 11:13:37;;;;;;;4.50;0.40;;;;;;;13.05;90.26;100090.63;102867;1288;24366;-61
2022/12/31 11:16:24;;;;;;;2.70;0.50;;;;;;;13.21;90.03;100080.66;102771;1287;24265;-62
2022/12/31 11:19:01;;;;;;;3.20;0.50;;;;;;;13.27;89.63;100081.57;102869;1310;22499;-60
2022/12/31 11:21:54;;;;;;;2.00;0.40;;;;;;;13.31;89.06;100080.33;102788;1293;22497;-60
2022/12/31 11:24:41;;;;;;;3.80;0.40;;;;;;;13.38;88.69;100080.34;102592;1287;22473;-62
2022/12/31 11:27:22;;;;;;;1.20;0.30;;;;;;;13.47;88.51;100082.48;102863;1280;24268;-66
2022/12/31 11:30:05;;;;;;;2.00;0.30;;;;;;;13.54;88.51;100080.41;103297;1295;25302;-65
2022/12/31 11:32:54;;;;;;;2.00;0.40;;;;;;;13.58;88.27;100071.87;103482;1299;22445;-63
2022/12/31 11:35:43;;;;;;;1.40;0.40;;;;;;;13.62;88.01;100066.93;103520;1278;24334;-66
2022/12/31 11:38:24;;;;;;;2.00;0.40;;;;;;;13.66;87.38;100066.98;103362;1278;22464;-65
2022/12/31 11:41:04;;;;;;;2.60;0.60;;;;;;;13.70;87.29;100069.05;103295;1303;24236;-64
2022/12/31 11:43:39;;;;;;;3.90;0.40;;;;;;;13.72;87.16;100067.13;103220;1274;24448;-66
2022/12/31 11:46:43;;;;;;;1.50;0.20;;;;;;;13.73;86.96;100062.64;103290;1280;25227;-63
2022/12/31 11:49:52;;;;;;;1.80;0.40;;;;;;;13.75;86.80;100063.66;103516;1280;22456;-63
2022/12/31 11:53:00;;;;;;;4.00;0.40;;;;;;;13.77;86.57;100058.58;103525;1303;24279;-64
2022/12/31 11:55:42;;;;;;;1.90;0.30;;;;;;;13.81;86.47;100057.21;103912;1282;22480;-63
2022/12/31 11:58:16;;;;;;;4.10;0.60;;;;;;;13.84;86.06;100051.04;103161;1298;24337;-62
2022/12/31 12:00:55;;;;;;;4.40;0.40;;;;;;;13.88;86.24;100050.29;103363;1282;22508;-62
2022/12/31 12:03:27;;;;;;;2.10;0.40;;;;;;;13.91;85.88;100044.77;103426;1281;23194;-62
2022/12/31 12:05:59;;;;;;;1.50;0.30;;;;;;;13.95;85.71;100050.45;103355;1304;22918;-63
2022/12/31 12:08:34;;;;;;;2.50;0.30;;;;;;;14.02;85.55;100057.16;103502;1281;24277;-62
2022/12/31 12:11:17;;;;;;;0.70;0.20;;;;;;;14.05;85.12;100053.23;103352;1281;22460;-62
2022/12/31 12:13:48;;;;;;;1.40;0.40;;;;;;;14.10;85.08;100056.56;103326;1282;23998;-62
2022/12/31 12:16:22;;;;;;;2.50;0.50;;;;;;;14.13;85.10;100055.75;103578;1302;24350;-62
2022/12/31 12:19:04;;;;;;;2.60;0.40;;;;;;;14.17;84.00;100059.94;103259;1281;22586;-63
2022/12/31 12:21:44;;;;;;;4.10;0.50;;;;;;;14.22;84.07;100060.46;103284;1305;25312;-63